Tulsa, OK

6:59 PM CDT on July 30, 2016 (GMT -0500)
Sheridan Valley - South Tulsa | | Change Station

Elev 774 ft 36.05 °N, 95.90 °W | Updated 22 seconds ago

Clear
Clear
86.9 °F
Feels Like 93 °F
N
2.0
Wind Variable Wind from ESE
Gusts 8.0 mph

Today
High -- | Low -- °F
--% Chance of Precip.
Yesterday
High -- | Low -- °F
Precip. -- in
Pressure 29.93 in
Visibility 10.0 miles
Clouds Clear
Heat Index 93 °F
Dew Point 71 °F
Humidity 60%
Rainfall 1.56 in
Snow Depth Not available.
6:29 AM 8:29 PM
Waning Crescent, 10% visible
METAR KRVS 302353Z 12005KT 10SM CLR 31/22 A2992 RMK AO2 SLP134 T03060217 10311 20239 55006
Pressure 29.93 in
Visibility 10.0 miles
Clouds Clear
Heat Index 93 °F
Dew Point 71 °F
Humidity 60%
Rainfall 1.56 in
Snow Depth Not available.
6:29 AM 8:29 PM
Waning Crescent, 10% visible
METAR KRVS 302353Z 12005KT 10SM CLR 31/22 A2992 RMK AO2 SLP134 T03060217 10311 20239 55006

10-Day Weather Forecast

Almanac

Astronomy

Jul. 30, 2016 Rise Set
Actual Time
Civil Twilight
Nautical Twilight
Astronomical Twilight
Moon
Length of Visible Light
Length of Day
Tomorrow will be .
, % of the Moon is Illuminated

Today's Extremes

State Highs State Lows

Community

WunderPhotos

Upload Photos

1,928,680 photos uploaded!

WunderBlog® & News

Nearby

Air Quality

  Air Quality AQ Index Pollutant
Not available.

Snow Depth

Station Depth Elevation

Earthquake Activity

City Distance Mag. Time & Date
Minimum magnitude displayed is 2.5.

Coastal Water Temperatures

Place Temperature

Stations

Nearby Weather Stations

Station Location Temp. Windchill Dew Point Humidity Wind Precip. Elev Updated Type
                   

Watches & Warnings

There are currently no watches in effect.